Haynes, AR (72341)

2:24 AM CDT on July 28, 2016 (GMT -0500)
marianna,arrkansas | | Change Station

Elev 230 ft 34.77 °N, 90.77 °W | Updated 6 minutes ago

Overcast
Overcast
74.8 °F
Feels Like 72 °F
N
0.0
Wind Variable Wind from West

Today
High -- | Low -- °F
--% Chance of Precip.
Yesterday
High -- | Low -- °F
Precip. -- in
Pressure 29.93 in
Visibility 7.0 miles
Clouds Overcast 600 ft
Heat Index 72 °F
Dew Point 74 °F
Humidity 99%
Rainfall 0.00 in
Snow Depth Not available.
6:10 AM 8:08 PM
Waning Crescent, 35% visible
METAR KUTA 280715Z AUTO 26008KT 7SM OVC006 23/23 A2993 RMK AO2 TSNO
Pressure 29.93 in
Visibility 7.0 miles
Clouds Overcast 600 ft
Heat Index 72 °F
Dew Point 74 °F
Humidity 99%
Rainfall 0.00 in
Snow Depth Not available.
6:10 AM 8:08 PM
Waning Crescent, 35% visible
METAR KUTA 280715Z AUTO 26008KT 7SM OVC006 23/23 A2993 RMK AO2 TSNO

10-Day Weather Forecast

Almanac

Astronomy

Jul. 28, 2016 Rise Set
Actual Time
Civil Twilight
Nautical Twilight
Astronomical Twilight
Moon
Length of Visible Light
Length of Day
Tomorrow will be .
, % of the Moon is Illuminated

Today's Extremes

State Highs State Lows

Community

WunderPhotos

Upload Photos

1,928,070 photos uploaded!

WunderBlog® & News

Nearby

Air Quality

  Air Quality AQ Index Pollutant
Not available.

Snow Depth

Station Depth Elevation

Earthquake Activity

City Distance Mag. Time & Date
Minimum magnitude displayed is 2.5.

Coastal Water Temperatures

Place Temperature

Stations

Nearby Weather Stations

Station Location Temp. Windchill Dew Point Humidity Wind Precip. Elev Updated Type
                   

Watches & Warnings

There are currently no watches in effect.